Main page
METAR-TAF:

METAR-TAF

Airports :

Singapore Changi Airport

Singapore, Singapore

latitude: 01-22N, longitude: 103-59E, elevation: 5 m

Current weather observation

The report was made 29 minutes ago, at 13:00 UTC
Wind 4 kt from the Southeast
Temperature 27°C
Humidity 89%
Pressure 1007 hPa
Visibility: 9000 m
Few clouds at a height of 1600 ft
Broken clouds at a height of 27000 ft

METAR: WSSS 201300Z 13004KT 9000 FEW016 BKN270 27/25 Q1007 NOSIG

Time: 21:29 (13:29 UTC)

Forecast

The report was made 2 hours and 29 minutes ago, at 11:00 UTC
Forecast valid from 20 at 12 UTC to 21 at 18 UTC
Wind 5 kt from the West/Northwest
Visibility 10 km or more
Few clouds at a height of 1500 ft
Scattered clouds at a height of 2000 ft
Temporary
from 21 at 03 UTC to 21 at 07 UTC
Visibility: 3000 m
Few clouds at a height of 1200 ft, Cumulonimbus.
Broken clouds at a height of 1500 ft
thunderstorm, rain

TAF: WSSS 201100Z 2012/2118 30005KT 9999 FEW015 SCT020 TEMPO 2103/2107 3000 TSRA FEW012CB BKN015

Weather observations and forecasts of more than 4000 airports (METAR and TAF reports).

The available stations are represented by yellow and red dots on the map.

Hover mouse over dot to see the name of the station.

Then click to see weather observations and forecasts.

To change the map : click on the green buttons with a black cross to zoom in, on the green button with a dash to zoom out, or on the green arrows for adjacent maps.


METAR-TAF: